sensor_id;sensor_type;location;lat;lon;timestamp;P1;durP1;ratioP1;P2;durP2;ratioP2
76745;SDS011;65671;49.976;20.038;2023-05-19T00:00:17;10.50;;;5.93;;
76745;SDS011;65671;49.976;20.038;2023-05-19T00:02:43;12.23;;;5.97;;
76745;SDS011;65671;49.976;20.038;2023-05-19T00:05:10;9.07;;;5.38;;
76745;SDS011;65671;49.976;20.038;2023-05-19T00:07:37;10.88;;;7.03;;
76745;SDS011;65671;49.976;20.038;2023-05-19T00:10:03;11.20;;;6.07;;
76745;SDS011;65671;49.976;20.038;2023-05-19T00:12:30;10.30;;;5.15;;
76745;SDS011;65671;49.976;20.038;2023-05-19T00:14:56;12.38;;;6.43;;
76745;SDS011;65671;49.976;20.038;2023-05-19T00:17:22;11.07;;;5.72;;
76745;SDS011;65671;49.976;20.038;2023-05-19T00:19:48;12.40;;;6.50;;
76745;SDS011;65671;49.976;20.038;2023-05-19T00:22:14;8.85;;;5.93;;
76745;SDS011;65671;49.976;20.038;2023-05-19T00:24:39;9.48;;;5.72;;
76745;SDS011;65671;49.976;20.038;2023-05-19T00:27:05;12.82;;;6.45;;
76745;SDS011;65671;49.976;20.038;2023-05-19T00:29:30;8.63;;;5.45;;
76745;SDS011;65671;49.976;20.038;2023-05-19T00:31:56;13.15;;;6.28;;
76745;SDS011;65671;49.976;20.038;2023-05-19T00:34:21;7.57;;;5.70;;
76745;SDS011;65671;49.976;20.038;2023-05-19T00:36:47;8.18;;;6.20;;
76745;SDS011;65671;49.976;20.038;2023-05-19T00:39:13;9.27;;;5.47;;
76745;SDS011;65671;49.976;20.038;2023-05-19T00:41:38;9.18;;;6.68;;
76745;SDS011;65671;49.976;20.038;2023-05-19T00:44:05;10.90;;;7.15;;
76745;SDS011;65671;49.976;20.038;2023-05-19T00:46:31;12.63;;;6.60;;
76745;SDS011;65671;49.976;20.038;2023-05-19T00:48:57;11.27;;;6.03;;
76745;SDS011;65671;49.976;20.038;2023-05-19T00:51:23;10.80;;;6.72;;
76745;SDS011;65671;49.976;20.038;2023-05-19T00:53:50;12.02;;;8.00;;
76745;SDS011;65671;49.976;20.038;2023-05-19T00:56:16;13.05;;;8.02;;
76745;SDS011;65671;49.976;20.038;2023-05-19T00:58:43;13.35;;;8.07;;
76745;SDS011;65671;49.976;20.038;2023-05-19T01:01:09;13.55;;;7.38;;
76745;SDS011;65671;49.976;20.038;2023-05-19T01:03:36;13.82;;;8.48;;
76745;SDS011;65671;49.976;20.038;2023-05-19T01:06:04;10.88;;;7.57;;
76745;SDS011;65671;49.976;20.038;2023-05-19T01:08:33;12.75;;;7.45;;
76745;SDS011;65671;49.976;20.038;2023-05-19T01:10:59;11.68;;;8.32;;
76745;SDS011;65671;49.976;20.038;2023-05-19T01:13:28;12.63;;;8.27;;
76745;SDS011;65671;49.976;20.038;2023-05-19T01:15:59;10.85;;;7.68;;
76745;SDS011;65671;49.976;20.038;2023-05-19T01:18:36;11.43;;;7.38;;
76745;SDS011;65671;49.976;20.038;2023-05-19T01:24:05;10.85;;;6.95;;
76745;SDS011;65671;49.976;20.038;2023-05-19T01:32:03;9.98;;;6.75;;
76745;SDS011;65671;49.976;20.038;2023-05-19T01:34:31;10.10;;;5.85;;
76745;SDS011;65671;49.976;20.038;2023-05-19T01:36:59;10.75;;;5.70;;
76745;SDS011;65671;49.976;20.038;2023-05-19T01:39:25;10.98;;;6.20;;
76745;SDS011;65671;49.976;20.038;2023-05-19T01:41:52;9.73;;;5.25;;
76745;SDS011;65671;49.976;20.038;2023-05-19T01:44:19;8.20;;;5.53;;
76745;SDS011;65671;49.976;20.038;2023-05-19T01:46:46;10.23;;;5.57;;
76745;SDS011;65671;49.976;20.038;2023-05-19T01:49:13;9.85;;;6.00;;
76745;SDS011;65671;49.976;20.038;2023-05-19T01:51:39;10.05;;;5.60;;
76745;SDS011;65671;49.976;20.038;2023-05-19T01:54:05;9.50;;;6.10;;
76745;SDS011;65671;49.976;20.038;2023-05-19T01:56:51;8.80;;;5.30;;
76745;SDS011;65671;49.976;20.038;2023-05-19T01:59:41;13.65;;;6.03;;
76745;SDS011;65671;49.976;20.038;2023-05-19T02:05:22;10.50;;;5.38;;
76745;SDS011;65671;49.976;20.038;2023-05-19T02:08:07;10.00;;;5.63;;
76745;SDS011;65671;49.976;20.038;2023-05-19T02:10:39;7.68;;;5.10;;
76745;SDS011;65671;49.976;20.038;2023-05-19T02:13:07;9.43;;;5.40;;
76745;SDS011;65671;49.976;20.038;2023-05-19T02:15:39;9.23;;;5.22;;
76745;SDS011;65671;49.976;20.038;2023-05-19T02:18:11;8.43;;;5.18;;
76745;SDS011;65671;49.976;20.038;2023-05-19T02:20:41;9.18;;;5.82;;
76745;SDS011;65671;49.976;20.038;2023-05-19T02:23:07;9.63;;;5.22;;
76745;SDS011;65671;49.976;20.038;2023-05-19T02:25:32;9.23;;;4.75;;
76745;SDS011;65671;49.976;20.038;2023-05-19T02:27:58;13.23;;;5.75;;
76745;SDS011;65671;49.976;20.038;2023-05-19T02:30:24;9.40;;;5.43;;
76745;SDS011;65671;49.976;20.038;2023-05-19T02:32:49;10.52;;;5.45;;
76745;SDS011;65671;49.976;20.038;2023-05-19T02:35:15;8.13;;;4.97;;
76745;SDS011;65671;49.976;20.038;2023-05-19T02:37:40;12.80;;;5.80;;
76745;SDS011;65671;49.976;20.038;2023-05-19T02:40:06;12.52;;;5.40;;
76745;SDS011;65671;49.976;20.038;2023-05-19T02:42:32;8.82;;;5.07;;
76745;SDS011;65671;49.976;20.038;2023-05-19T02:44:58;9.70;;;5.75;;
76745;SDS011;65671;49.976;20.038;2023-05-19T02:47:24;13.10;;;5.90;;
76745;SDS011;65671;49.976;20.038;2023-05-19T02:49:50;7.35;;;5.35;;
76745;SDS011;65671;49.976;20.038;2023-05-19T02:52:15;9.43;;;5.90;;
76745;SDS011;65671;49.976;20.038;2023-05-19T02:54:41;10.73;;;6.00;;
76745;SDS011;65671;49.976;20.038;2023-05-19T02:57:06;10.73;;;5.68;;
76745;SDS011;65671;49.976;20.038;2023-05-19T02:59:32;10.50;;;6.10;;
76745;SDS011;65671;49.976;20.038;2023-05-19T03:02:01;10.98;;;5.38;;
76745;SDS011;65671;49.976;20.038;2023-05-19T03:04:27;10.48;;;6.15;;
76745;SDS011;65671;49.976;20.038;2023-05-19T03:06:54;8.57;;;5.75;;
76745;SDS011;65671;49.976;20.038;2023-05-19T03:09:19;8.27;;;5.47;;
76745;SDS011;65671;49.976;20.038;2023-05-19T03:11:45;8.02;;;5.63;;
76745;SDS011;65671;49.976;20.038;2023-05-19T03:14:10;7.47;;;5.22;;
76745;SDS011;65671;49.976;20.038;2023-05-19T03:16:38;9.90;;;5.63;;
76745;SDS011;65671;49.976;20.038;2023-05-19T03:19:06;14.30;;;6.47;;
76745;SDS011;65671;49.976;20.038;2023-05-19T03:21:33;13.10;;;7.05;;
76745;SDS011;65671;49.976;20.038;2023-05-19T03:23:59;10.57;;;6.00;;
76745;SDS011;65671;49.976;20.038;2023-05-19T03:26:25;11.55;;;7.13;;
76745;SDS011;65671;49.976;20.038;2023-05-19T03:28:51;9.13;;;6.30;;
76745;SDS011;65671;49.976;20.038;2023-05-19T03:31:16;14.57;;;7.28;;
76745;SDS011;65671;49.976;20.038;2023-05-19T03:33:42;12.38;;;6.55;;
76745;SDS011;65671;49.976;20.038;2023-05-19T03:36:07;15.27;;;8.98;;
76745;SDS011;65671;49.976;20.038;2023-05-19T03:38:34;13.25;;;7.53;;
76745;SDS011;65671;49.976;20.038;2023-05-19T03:40:59;14.25;;;7.63;;
76745;SDS011;65671;49.976;20.038;2023-05-19T03:43:25;15.15;;;7.00;;
76745;SDS011;65671;49.976;20.038;2023-05-19T03:45:50;14.35;;;7.43;;
76745;SDS011;65671;49.976;20.038;2023-05-19T03:48:16;16.35;;;7.18;;
76745;SDS011;65671;49.976;20.038;2023-05-19T03:50:42;16.33;;;7.72;;
76745;SDS011;65671;49.976;20.038;2023-05-19T03:53:08;15.52;;;7.63;;
76745;SDS011;65671;49.976;20.038;2023-05-19T03:55:34;17.52;;;7.18;;
76745;SDS011;65671;49.976;20.038;2023-05-19T03:58:01;17.15;;;6.95;;
76745;SDS011;65671;49.976;20.038;2023-05-19T04:00:27;19.95;;;8.10;;
76745;SDS011;65671;49.976;20.038;2023-05-19T04:02:52;20.27;;;9.32;;
76745;SDS011;65671;49.976;20.038;2023-05-19T04:05:18;22.48;;;8.70;;
76745;SDS011;65671;49.976;20.038;2023-05-19T04:07:44;26.10;;;9.07;;
76745;SDS011;65671;49.976;20.038;2023-05-19T04:10:11;28.13;;;8.88;;
76745;SDS011;65671;49.976;20.038;2023-05-19T04:12:36;21.83;;;8.50;;
76745;SDS011;65671;49.976;20.038;2023-05-19T04:15:02;21.63;;;8.98;;
76745;SDS011;65671;49.976;20.038;2023-05-19T04:17:29;28.33;;;9.85;;
76745;SDS011;65671;49.976;20.038;2023-05-19T04:19:55;21.08;;;8.13;;
76745;SDS011;65671;49.976;20.038;2023-05-19T04:22:21;16.70;;;8.77;;
76745;SDS011;65671;49.976;20.038;2023-05-19T04:24:46;21.83;;;8.95;;
76745;SDS011;65671;49.976;20.038;2023-05-19T04:27:12;21.65;;;8.38;;
76745;SDS011;65671;49.976;20.038;2023-05-19T04:29:40;25.95;;;9.52;;
76745;SDS011;65671;49.976;20.038;2023-05-19T04:32:05;17.00;;;8.35;;
76745;SDS011;65671;49.976;20.038;2023-05-19T04:34:32;25.27;;;7.82;;
76745;SDS011;65671;49.976;20.038;2023-05-19T04:37:04;20.42;;;9.10;;
76745;SDS011;65671;49.976;20.038;2023-05-19T04:39:31;16.90;;;8.23;;
76745;SDS011;65671;49.976;20.038;2023-05-19T04:41:56;25.45;;;8.77;;
76745;SDS011;65671;49.976;20.038;2023-05-19T04:44:22;15.93;;;8.63;;
76745;SDS011;65671;49.976;20.038;2023-05-19T04:46:47;24.60;;;9.15;;
76745;SDS011;65671;49.976;20.038;2023-05-19T04:49:14;16.90;;;9.07;;
76745;SDS011;65671;49.976;20.038;2023-05-19T04:51:39;17.60;;;7.93;;
76745;SDS011;65671;49.976;20.038;2023-05-19T04:54:09;16.17;;;7.60;;
76745;SDS011;65671;49.976;20.038;2023-05-19T04:56:35;13.85;;;6.95;;
76745;SDS011;65671;49.976;20.038;2023-05-19T04:59:01;15.82;;;8.70;;
76745;SDS011;65671;49.976;20.038;2023-05-19T05:01:27;17.17;;;8.13;;
76745;SDS011;65671;49.976;20.038;2023-05-19T05:03:55;16.75;;;8.77;;
76745;SDS011;65671;49.976;20.038;2023-05-19T05:06:23;13.88;;;7.30;;
76745;SDS011;65671;49.976;20.038;2023-05-19T05:08:49;15.00;;;7.43;;
76745;SDS011;65671;49.976;20.038;2023-05-19T05:11:16;13.00;;;7.57;;
76745;SDS011;65671;49.976;20.038;2023-05-19T05:13:42;15.50;;;7.45;;
76745;SDS011;65671;49.976;20.038;2023-05-19T05:16:08;13.60;;;7.03;;
76745;SDS011;65671;49.976;20.038;2023-05-19T05:18:34;15.07;;;7.80;;
76745;SDS011;65671;49.976;20.038;2023-05-19T05:21:03;13.05;;;6.95;;
76745;SDS011;65671;49.976;20.038;2023-05-19T05:23:30;14.80;;;7.95;;
76745;SDS011;65671;49.976;20.038;2023-05-19T05:25:56;15.13;;;7.25;;
76745;SDS011;65671;49.976;20.038;2023-05-19T05:28:21;13.82;;;7.07;;
76745;SDS011;65671;49.976;20.038;2023-05-19T05:30:47;12.23;;;7.50;;
76745;SDS011;65671;49.976;20.038;2023-05-19T05:33:13;17.92;;;8.52;;
76745;SDS011;65671;49.976;20.038;2023-05-19T05:35:39;15.73;;;8.13;;
76745;SDS011;65671;49.976;20.038;2023-05-19T05:38:04;16.42;;;8.18;;
76745;SDS011;65671;49.976;20.038;2023-05-19T05:40:30;13.35;;;7.70;;
76745;SDS011;65671;49.976;20.038;2023-05-19T05:42:56;12.55;;;7.57;;
76745;SDS011;65671;49.976;20.038;2023-05-19T05:45:23;13.60;;;8.68;;
76745;SDS011;65671;49.976;20.038;2023-05-19T05:47:49;16.88;;;8.02;;
76745;SDS011;65671;49.976;20.038;2023-05-19T05:50:15;14.38;;;7.95;;
76745;SDS011;65671;49.976;20.038;2023-05-19T05:52:42;14.50;;;9.13;;
76745;SDS011;65671;49.976;20.038;2023-05-19T05:55:11;16.98;;;9.07;;
76745;SDS011;65671;49.976;20.038;2023-05-19T05:57:38;18.02;;;8.88;;
76745;SDS011;65671;49.976;20.038;2023-05-19T06:00:06;18.42;;;9.38;;
76745;SDS011;65671;49.976;20.038;2023-05-19T06:02:41;17.25;;;9.02;;
76745;SDS011;65671;49.976;20.038;2023-05-19T06:05:08;17.90;;;8.68;;
76745;SDS011;65671;49.976;20.038;2023-05-19T06:07:37;19.15;;;9.27;;
76745;SDS011;65671;49.976;20.038;2023-05-19T06:10:03;20.90;;;9.23;;
76745;SDS011;65671;49.976;20.038;2023-05-19T06:12:29;20.52;;;10.13;;
76745;SDS011;65671;49.976;20.038;2023-05-19T06:14:55;19.15;;;9.93;;
76745;SDS011;65671;49.976;20.038;2023-05-19T06:17:20;21.08;;;10.82;;
76745;SDS011;65671;49.976;20.038;2023-05-19T06:19:46;22.73;;;10.63;;
76745;SDS011;65671;49.976;20.038;2023-05-19T06:22:11;21.63;;;9.88;;
76745;SDS011;65671;49.976;20.038;2023-05-19T06:24:37;21.33;;;10.73;;
76745;SDS011;65671;49.976;20.038;2023-05-19T06:27:02;17.63;;;9.98;;
76745;SDS011;65671;49.976;20.038;2023-05-19T06:29:28;22.67;;;10.65;;
76745;SDS011;65671;49.976;20.038;2023-05-19T06:31:53;18.00;;;10.35;;
76745;SDS011;65671;49.976;20.038;2023-05-19T06:34:19;22.73;;;10.32;;
76745;SDS011;65671;49.976;20.038;2023-05-19T06:36:45;20.88;;;11.13;;
76745;SDS011;65671;49.976;20.038;2023-05-19T06:39:10;18.73;;;11.02;;
76745;SDS011;65671;49.976;20.038;2023-05-19T06:41:36;16.10;;;9.20;;
76745;SDS011;65671;49.976;20.038;2023-05-19T06:44:02;19.30;;;10.70;;
76745;SDS011;65671;49.976;20.038;2023-05-19T06:46:28;18.35;;;10.48;;
76745;SDS011;65671;49.976;20.038;2023-05-19T06:48:54;22.55;;;11.63;;
76745;SDS011;65671;49.976;20.038;2023-05-19T06:51:19;32.25;;;14.13;;
76745;SDS011;65671;49.976;20.038;2023-05-19T06:53:49;19.58;;;11.07;;
76745;SDS011;65671;49.976;20.038;2023-05-19T06:56:15;23.02;;;10.95;;
76745;SDS011;65671;49.976;20.038;2023-05-19T06:58:40;21.10;;;9.90;;
76745;SDS011;65671;49.976;20.038;2023-05-19T07:01:06;21.08;;;10.90;;
76745;SDS011;65671;49.976;20.038;2023-05-19T07:03:31;19.52;;;10.73;;
76745;SDS011;65671;49.976;20.038;2023-05-19T07:05:57;18.77;;;10.82;;
76745;SDS011;65671;49.976;20.038;2023-05-19T07:08:22;21.17;;;10.57;;
76745;SDS011;65671;49.976;20.038;2023-05-19T07:10:48;20.15;;;9.73;;
76745;SDS011;65671;49.976;20.038;2023-05-19T07:13:14;24.52;;;11.05;;
76745;SDS011;65671;49.976;20.038;2023-05-19T07:15:39;20.02;;;10.68;;
76745;SDS011;65671;49.976;20.038;2023-05-19T07:18:05;15.73;;;9.63;;
76745;SDS011;65671;49.976;20.038;2023-05-19T07:20:30;19.95;;;10.10;;
76745;SDS011;65671;49.976;20.038;2023-05-19T07:22:56;20.23;;;9.85;;
76745;SDS011;65671;49.976;20.038;2023-05-19T07:25:21;17.08;;;9.43;;
76745;SDS011;65671;49.976;20.038;2023-05-19T07:27:47;15.85;;;9.30;;
76745;SDS011;65671;49.976;20.038;2023-05-19T07:30:13;15.68;;;9.25;;
76745;SDS011;65671;49.976;20.038;2023-05-19T07:32:38;17.80;;;9.68;;
76745;SDS011;65671;49.976;20.038;2023-05-19T07:35:05;18.08;;;8.88;;
76745;SDS011;65671;49.976;20.038;2023-05-19T07:37:31;16.33;;;8.73;;
76745;SDS011;65671;49.976;20.038;2023-05-19T07:39:58;16.35;;;8.27;;
76745;SDS011;65671;49.976;20.038;2023-05-19T07:42:23;14.60;;;9.13;;
76745;SDS011;65671;49.976;20.038;2023-05-19T07:44:49;14.00;;;8.52;;
76745;SDS011;65671;49.976;20.038;2023-05-19T07:47:15;13.18;;;7.47;;
76745;SDS011;65671;49.976;20.038;2023-05-19T07:49:40;13.80;;;9.07;;
76745;SDS011;65671;49.976;20.038;2023-05-19T07:52:05;13.85;;;7.80;;
76745;SDS011;65671;49.976;20.038;2023-05-19T07:54:31;14.10;;;8.40;;
76745;SDS011;65671;49.976;20.038;2023-05-19T07:56:57;10.05;;;7.05;;
76745;SDS011;65671;49.976;20.038;2023-05-19T07:59:22;12.35;;;8.10;;
76745;SDS011;65671;49.976;20.038;2023-05-19T08:01:48;9.30;;;6.63;;
76745;SDS011;65671;49.976;20.038;2023-05-19T08:04:14;10.82;;;7.50;;
76745;SDS011;65671;49.976;20.038;2023-05-19T08:06:40;10.77;;;7.25;;
76745;SDS011;65671;49.976;20.038;2023-05-19T08:09:06;14.93;;;8.15;;
76745;SDS011;65671;49.976;20.038;2023-05-19T08:11:32;13.85;;;7.88;;
76745;SDS011;65671;49.976;20.038;2023-05-19T08:13:58;13.73;;;8.27;;
76745;SDS011;65671;49.976;20.038;2023-05-19T08:19:40;12.82;;;8.32;;
76745;SDS011;65671;49.976;20.038;2023-05-19T08:22:06;13.85;;;8.38;;
76745;SDS011;65671;49.976;20.038;2023-05-19T08:24:31;13.13;;;7.72;;
76745;SDS011;65671;49.976;20.038;2023-05-19T08:26:57;13.18;;;8.55;;
76745;SDS011;65671;49.976;20.038;2023-05-19T08:29:23;13.75;;;8.32;;
76745;SDS011;65671;49.976;20.038;2023-05-19T08:31:49;13.35;;;8.15;;
76745;SDS011;65671;49.976;20.038;2023-05-19T08:34:14;13.23;;;8.80;;
76745;SDS011;65671;49.976;20.038;2023-05-19T08:36:40;12.43;;;8.30;;
76745;SDS011;65671;49.976;20.038;2023-05-19T08:39:05;14.43;;;8.77;;
76745;SDS011;65671;49.976;20.038;2023-05-19T08:41:31;11.10;;;7.05;;
76745;SDS011;65671;49.976;20.038;2023-05-19T08:43:57;11.98;;;7.97;;
76745;SDS011;65671;49.976;20.038;2023-05-19T08:46:23;11.10;;;8.43;;
76745;SDS011;65671;49.976;20.038;2023-05-19T08:48:50;13.65;;;8.73;;
76745;SDS011;65671;49.976;20.038;2023-05-19T08:56:32;15.65;;;9.70;;
76745;SDS011;65671;49.976;20.038;2023-05-19T08:58:58;14.45;;;8.98;;
76745;SDS011;65671;49.976;20.038;2023-05-19T09:01:25;12.45;;;8.63;;
76745;SDS011;65671;49.976;20.038;2023-05-19T09:03:53;15.57;;;10.25;;
76745;SDS011;65671;49.976;20.038;2023-05-19T09:06:19;16.63;;;9.23;;
76745;SDS011;65671;49.976;20.038;2023-05-19T09:08:45;14.07;;;9.20;;
76745;SDS011;65671;49.976;20.038;2023-05-19T09:11:11;14.77;;;9.20;;
76745;SDS011;65671;49.976;20.038;2023-05-19T09:13:37;15.55;;;9.43;;
76745;SDS011;65671;49.976;20.038;2023-05-19T09:16:03;16.60;;;8.73;;
76745;SDS011;65671;49.976;20.038;2023-05-19T09:18:29;14.20;;;9.43;;
76745;SDS011;65671;49.976;20.038;2023-05-19T09:20:55;13.25;;;9.20;;
76745;SDS011;65671;49.976;20.038;2023-05-19T09:23:27;11.05;;;8.00;;
76745;SDS011;65671;49.976;20.038;2023-05-19T09:25:54;12.25;;;8.27;;
76745;SDS011;65671;49.976;20.038;2023-05-19T09:28:22;12.52;;;8.63;;
76745;SDS011;65671;49.976;20.038;2023-05-19T09:30:48;13.50;;;8.18;;
76745;SDS011;65671;49.976;20.038;2023-05-19T09:33:18;13.45;;;8.00;;
76745;SDS011;65671;49.976;20.038;2023-05-19T09:35:47;15.65;;;8.57;;
76745;SDS011;65671;49.976;20.038;2023-05-19T09:38:19;16.13;;;8.43;;
76745;SDS011;65671;49.976;20.038;2023-05-19T09:40:47;13.23;;;8.38;;
76745;SDS011;65671;49.976;20.038;2023-05-19T09:43:14;13.02;;;7.85;;
76745;SDS011;65671;49.976;20.038;2023-05-19T09:45:40;10.68;;;7.13;;
76745;SDS011;65671;49.976;20.038;2023-05-19T09:48:06;11.30;;;7.68;;
76745;SDS011;65671;49.976;20.038;2023-05-19T09:50:32;11.07;;;8.00;;
76745;SDS011;65671;49.976;20.038;2023-05-19T09:52:58;14.57;;;9.07;;
76745;SDS011;65671;49.976;20.038;2023-05-19T09:55:24;14.95;;;9.35;;
76745;SDS011;65671;49.976;20.038;2023-05-19T09:57:53;11.88;;;8.98;;
76745;SDS011;65671;49.976;20.038;2023-05-19T10:00:21;17.52;;;10.18;;
76745;SDS011;65671;49.976;20.038;2023-05-19T10:02:47;14.52;;;8.98;;
76745;SDS011;65671;49.976;20.038;2023-05-19T10:05:15;14.77;;;8.65;;
76745;SDS011;65671;49.976;20.038;2023-05-19T10:07:50;14.35;;;9.55;;
76745;SDS011;65671;49.976;20.038;2023-05-19T10:10:17;16.23;;;8.77;;
76745;SDS011;65671;49.976;20.038;2023-05-19T10:12:46;14.45;;;9.65;;
76745;SDS011;65671;49.976;20.038;2023-05-19T10:15:13;11.95;;;8.25;;
76745;SDS011;65671;49.976;20.038;2023-05-19T10:17:41;14.18;;;8.30;;
76745;SDS011;65671;49.976;20.038;2023-05-19T10:20:08;12.30;;;8.43;;
76745;SDS011;65671;49.976;20.038;2023-05-19T10:22:39;8.40;;;6.07;;
76745;SDS011;65671;49.976;20.038;2023-05-19T10:25:07;10.30;;;6.75;;
76745;SDS011;65671;49.976;20.038;2023-05-19T10:27:35;9.90;;;7.18;;
76745;SDS011;65671;49.976;20.038;2023-05-19T10:30:16;10.70;;;6.60;;
76745;SDS011;65671;49.976;20.038;2023-05-19T10:32:45;9.88;;;6.93;;
76745;SDS011;65671;49.976;20.038;2023-05-19T10:46:33;10.43;;;6.55;;
76745;SDS011;65671;49.976;20.038;2023-05-19T10:48:58;9.57;;;6.35;;
76745;SDS011;65671;49.976;20.038;2023-05-19T10:51:29;11.50;;;7.70;;
76745;SDS011;65671;49.976;20.038;2023-05-19T10:53:55;11.50;;;7.10;;
76745;SDS011;65671;49.976;20.038;2023-05-19T10:56:29;10.73;;;6.43;;
76745;SDS011;65671;49.976;20.038;2023-05-19T10:58:59;7.68;;;5.72;;
76745;SDS011;65671;49.976;20.038;2023-05-19T11:01:32;10.73;;;6.43;;
76745;SDS011;65671;49.976;20.038;2023-05-19T11:04:05;11.07;;;6.45;;
76745;SDS011;65671;49.976;20.038;2023-05-19T11:06:36;10.10;;;6.25;;
76745;SDS011;65671;49.976;20.038;2023-05-19T11:09:16;14.38;;;8.07;;
76745;SDS011;65671;49.976;20.038;2023-05-19T11:14:19;10.45;;;6.85;;
76745;SDS011;65671;49.976;20.038;2023-05-19T11:16:47;11.38;;;7.28;;
76745;SDS011;65671;49.976;20.038;2023-05-19T11:19:33;13.68;;;7.68;;
76745;SDS011;65671;49.976;20.038;2023-05-19T11:22:10;8.85;;;6.78;;
76745;SDS011;65671;49.976;20.038;2023-05-19T11:27:16;13.32;;;7.72;;
76745;SDS011;65671;49.976;20.038;2023-05-19T11:29:45;11.18;;;7.53;;
76745;SDS011;65671;49.976;20.038;2023-05-19T11:32:12;10.75;;;6.95;;
76745;SDS011;65671;49.976;20.038;2023-05-19T11:34:39;11.10;;;7.88;;
76745;SDS011;65671;49.976;20.038;2023-05-19T11:37:06;12.13;;;7.72;;
76745;SDS011;65671;49.976;20.038;2023-05-19T11:39:33;11.15;;;8.07;;
76745;SDS011;65671;49.976;20.038;2023-05-19T11:41:59;10.70;;;7.55;;
76745;SDS011;65671;49.976;20.038;2023-05-19T11:44:25;10.02;;;7.07;;
76745;SDS011;65671;49.976;20.038;2023-05-19T11:46:50;8.80;;;6.88;;
76745;SDS011;65671;49.976;20.038;2023-05-19T11:49:16;9.02;;;6.82;;
76745;SDS011;65671;49.976;20.038;2023-05-19T11:51:42;10.95;;;7.13;;
76745;SDS011;65671;49.976;20.038;2023-05-19T11:54:11;13.23;;;7.03;;
76745;SDS011;65671;49.976;20.038;2023-05-19T11:56:40;10.30;;;6.65;;
76745;SDS011;65671;49.976;20.038;2023-05-19T11:59:07;10.18;;;6.95;;
76745;SDS011;65671;49.976;20.038;2023-05-19T12:01:33;11.40;;;7.40;;
76745;SDS011;65671;49.976;20.038;2023-05-19T12:04:00;13.38;;;7.40;;
76745;SDS011;65671;49.976;20.038;2023-05-19T12:06:26;12.52;;;7.85;;
76745;SDS011;65671;49.976;20.038;2023-05-19T12:08:53;10.68;;;6.88;;
76745;SDS011;65671;49.976;20.038;2023-05-19T12:11:19;11.50;;;7.90;;
76745;SDS011;65671;49.976;20.038;2023-05-19T12:13:46;10.73;;;7.40;;
76745;SDS011;65671;49.976;20.038;2023-05-19T12:16:13;14.38;;;8.00;;
76745;SDS011;65671;49.976;20.038;2023-05-19T12:18:38;13.48;;;8.35;;
76745;SDS011;65671;49.976;20.038;2023-05-19T12:21:04;13.10;;;7.90;;
76745;SDS011;65671;49.976;20.038;2023-05-19T12:23:31;14.55;;;8.20;;
76745;SDS011;65671;49.976;20.038;2023-05-19T12:25:58;12.60;;;8.07;;
76745;SDS011;65671;49.976;20.038;2023-05-19T12:28:25;12.93;;;8.43;;
76745;SDS011;65671;49.976;20.038;2023-05-19T12:30:53;14.40;;;7.82;;
76745;SDS011;65671;49.976;20.038;2023-05-19T12:33:22;12.00;;;8.07;;
76745;SDS011;65671;49.976;20.038;2023-05-19T12:35:48;13.20;;;8.60;;
76745;SDS011;65671;49.976;20.038;2023-05-19T12:38:15;15.15;;;8.20;;
76745;SDS011;65671;49.976;20.038;2023-05-19T12:40:41;13.45;;;8.15;;
76745;SDS011;65671;49.976;20.038;2023-05-19T12:43:11;13.60;;;8.50;;
76745;SDS011;65671;49.976;20.038;2023-05-19T12:45:43;15.40;;;8.48;;
76745;SDS011;65671;49.976;20.038;2023-05-19T12:48:12;11.60;;;8.50;;
76745;SDS011;65671;49.976;20.038;2023-05-19T12:50:42;14.20;;;8.65;;
76745;SDS011;65671;49.976;20.038;2023-05-19T12:53:11;10.27;;;7.47;;
76745;SDS011;65671;49.976;20.038;2023-05-19T12:55:39;14.07;;;8.13;;
76745;SDS011;65671;49.976;20.038;2023-05-19T12:58:08;11.05;;;8.45;;
76745;SDS011;65671;49.976;20.038;2023-05-19T13:00:39;14.75;;;7.80;;
76745;SDS011;65671;49.976;20.038;2023-05-19T13:03:06;12.25;;;7.65;;
76745;SDS011;65671;49.976;20.038;2023-05-19T13:05:37;13.38;;;7.82;;
76745;SDS011;65671;49.976;20.038;2023-05-19T13:08:11;15.82;;;9.13;;
76745;SDS011;65671;49.976;20.038;2023-05-19T13:10:38;12.60;;;8.90;;
76745;SDS011;65671;49.976;20.038;2023-05-19T13:13:05;12.98;;;8.13;;
76745;SDS011;65671;49.976;20.038;2023-05-19T13:15:32;14.40;;;9.27;;
76745;SDS011;65671;49.976;20.038;2023-05-19T13:18:00;12.32;;;8.25;;
76745;SDS011;65671;49.976;20.038;2023-05-19T13:20:27;14.82;;;9.25;;
76745;SDS011;65671;49.976;20.038;2023-05-19T13:22:53;16.42;;;10.13;;
76745;SDS011;65671;49.976;20.038;2023-05-19T13:25:19;12.80;;;8.65;;
76745;SDS011;65671;49.976;20.038;2023-05-19T13:27:45;13.82;;;9.15;;
76745;SDS011;65671;49.976;20.038;2023-05-19T13:30:12;12.82;;;8.85;;
76745;SDS011;65671;49.976;20.038;2023-05-19T13:32:38;15.50;;;9.00;;
76745;SDS011;65671;49.976;20.038;2023-05-19T13:35:04;13.82;;;9.05;;
76745;SDS011;65671;49.976;20.038;2023-05-19T13:37:30;18.98;;;9.82;;
76745;SDS011;65671;49.976;20.038;2023-05-19T13:39:56;17.23;;;9.43;;
76745;SDS011;65671;49.976;20.038;2023-05-19T13:42:22;12.68;;;8.40;;
76745;SDS011;65671;49.976;20.038;2023-05-19T13:44:48;14.63;;;9.65;;
76745;SDS011;65671;49.976;20.038;2023-05-19T13:47:18;14.05;;;9.55;;
76745;SDS011;65671;49.976;20.038;2023-05-19T13:49:43;14.95;;;9.18;;
76745;SDS011;65671;49.976;20.038;2023-05-19T13:52:09;14.85;;;9.98;;
76745;SDS011;65671;49.976;20.038;2023-05-19T13:54:36;13.90;;;9.65;;
76745;SDS011;65671;49.976;20.038;2023-05-19T13:57:02;16.20;;;9.60;;
76745;SDS011;65671;49.976;20.038;2023-05-19T13:59:27;13.75;;;8.93;;
76745;SDS011;65671;49.976;20.038;2023-05-19T14:01:53;14.48;;;8.77;;
76745;SDS011;65671;49.976;20.038;2023-05-19T14:04:19;13.98;;;10.20;;
76745;SDS011;65671;49.976;20.038;2023-05-19T14:06:45;14.75;;;9.57;;
76745;SDS011;65671;49.976;20.038;2023-05-19T14:09:10;15.45;;;8.90;;
76745;SDS011;65671;49.976;20.038;2023-05-19T14:11:37;14.35;;;9.98;;
76745;SDS011;65671;49.976;20.038;2023-05-19T14:14:03;16.45;;;9.88;;
76745;SDS011;65671;49.976;20.038;2023-05-19T14:16:29;17.10;;;9.88;;
76745;SDS011;65671;49.976;20.038;2023-05-19T14:18:54;18.13;;;9.73;;
76745;SDS011;65671;49.976;20.038;2023-05-19T14:21:20;15.15;;;9.82;;
76745;SDS011;65671;49.976;20.038;2023-05-19T14:23:46;15.32;;;9.30;;
76745;SDS011;65671;49.976;20.038;2023-05-19T14:26:12;17.15;;;9.35;;
76745;SDS011;65671;49.976;20.038;2023-05-19T14:28:38;16.98;;;9.75;;
76745;SDS011;65671;49.976;20.038;2023-05-19T14:31:03;16.48;;;9.98;;
76745;SDS011;65671;49.976;20.038;2023-05-19T14:33:30;13.75;;;9.32;;
76745;SDS011;65671;49.976;20.038;2023-05-19T14:35:55;12.80;;;9.05;;
76745;SDS011;65671;49.976;20.038;2023-05-19T14:38:24;13.93;;;9.07;;
76745;SDS011;65671;49.976;20.038;2023-05-19T14:40:50;14.05;;;9.30;;
76745;SDS011;65671;49.976;20.038;2023-05-19T14:43:16;18.33;;;9.88;;
76745;SDS011;65671;49.976;20.038;2023-05-19T14:45:41;14.32;;;9.20;;
76745;SDS011;65671;49.976;20.038;2023-05-19T14:48:08;15.85;;;9.02;;
76745;SDS011;65671;49.976;20.038;2023-05-19T14:50:36;16.67;;;9.82;;
76745;SDS011;65671;49.976;20.038;2023-05-19T14:53:03;14.98;;;9.77;;
76745;SDS011;65671;49.976;20.038;2023-05-19T14:55:28;15.32;;;9.52;;